createdAt,value
2018-08-13T00:01:41.604Z,96244.88
2018-08-13T00:05:06.984Z,96237.61
2018-08-13T00:08:31.640Z,96233.28
2018-08-13T00:11:56.292Z,96240.47
2018-08-13T00:15:21.055Z,96227.17
2018-08-13T00:18:45.817Z,96220.88
2018-08-13T00:22:10.517Z,96212.16
2018-08-13T00:25:35.450Z,96229.88
2018-08-13T00:29:00.105Z,96238.41
2018-08-13T00:32:24.789Z,96225.44
2018-08-13T00:35:49.430Z,96223.66
2018-08-13T00:39:14.428Z,96216.15
2018-08-13T00:42:39.110Z,96209.27
2018-08-13T00:46:03.778Z,96213.72
2018-08-13T00:49:28.482Z,96211.88
2018-08-13T00:52:53.235Z,96211.34
2018-08-13T00:56:17.900Z,96201.20
2018-08-13T00:59:42.598Z,96192.20
2018-08-13T01:03:08.165Z,96203.91
2018-08-13T01:06:32.844Z,96193.28
2018-08-13T01:09:57.511Z,96199.16
2018-08-13T01:13:22.151Z,96195.23
2018-08-13T01:16:46.943Z,96195.32
2018-08-13T01:20:13.436Z,96195.78
2018-08-13T01:23:38.095Z,96193.33
2018-08-13T01:27:02.775Z,96187.73
2018-08-13T01:30:27.461Z,96183.77
2018-08-13T01:33:52.098Z,96185.69
2018-08-13T01:37:16.799Z,96183.13
2018-08-13T01:40:41.443Z,96189.90
2018-08-13T01:44:06.397Z,96192.31
2018-08-13T01:47:31.023Z,96185.74
2018-08-13T01:50:55.730Z,96182.24
2018-08-13T01:54:20.585Z,96184.50
2018-08-13T01:57:45.207Z,96187.94
2018-08-13T02:01:09.922Z,96187.33
2018-08-13T02:04:34.614Z,96190.25
2018-08-13T02:07:59.288Z,96192.14
2018-08-13T02:11:24.000Z,96187.03
2018-08-13T02:14:48.729Z,96184.56
2018-08-13T02:18:13.334Z,96193.19
2018-08-13T02:21:38.094Z,96189.66
2018-08-13T02:25:02.807Z,96188.52
2018-08-13T02:28:27.448Z,96191.66
2018-08-13T02:31:52.102Z,96178.57
2018-08-13T02:35:16.778Z,96178.71
2018-08-13T02:38:41.703Z,96172.42
2018-08-13T02:42:06.414Z,96166.27
2018-08-13T02:45:31.056Z,96170.71
2018-08-13T02:48:55.774Z,96172.85
2018-08-13T02:52:20.399Z,96168.26
2018-08-13T02:55:45.086Z,96180.40
2018-08-13T02:59:09.824Z,96175.21
2018-08-13T03:02:34.466Z,96175.78
2018-08-13T03:05:59.104Z,96171.92
2018-08-13T03:09:23.764Z,96166.38
2018-08-13T03:12:48.464Z,96171.17
2018-08-13T03:16:13.129Z,96180.77
2018-08-13T03:19:37.868Z,96176.51
2018-08-13T03:23:02.565Z,96170.73
2018-08-13T03:26:27.250Z,96175.69
2018-08-13T03:29:51.968Z,96183.34
2018-08-13T03:33:16.743Z,96184.37
2018-08-13T03:36:41.482Z,96195.67
2018-08-13T03:40:09.690Z,96202.28
2018-08-13T03:43:34.445Z,96202.76
2018-08-13T03:46:59.152Z,96205.74
2018-08-13T03:50:23.912Z,96205.30
2018-08-13T03:53:48.754Z,96200.63
2018-08-13T03:57:13.435Z,96200.28
2018-08-13T04:00:38.136Z,96201.80
2018-08-13T04:04:02.947Z,96204.77
2018-08-13T04:07:27.670Z,96195.76
2018-08-13T04:10:52.389Z,96193.68
2018-08-13T04:14:17.242Z,96191.89
2018-08-13T04:17:42.207Z,96194.08
2018-08-13T04:21:07.700Z,96191.77
2018-08-13T04:24:32.464Z,96192.97
2018-08-13T04:27:57.270Z,96192.00
2018-08-13T04:31:21.942Z,96186.91
2018-08-13T04:34:46.587Z,96177.69
2018-08-13T04:38:11.252Z,96183.78
2018-08-13T04:41:35.960Z,96181.09
2018-08-13T04:45:00.709Z,96179.47
2018-08-13T04:48:25.372Z,96183.78
2018-08-13T04:51:50.040Z,96187.79
2018-08-13T04:55:14.718Z,96190.95
2018-08-13T04:58:39.379Z,96189.69
2018-08-13T05:02:04.079Z,96208.95
2018-08-13T05:05:28.704Z,96208.09
2018-08-13T05:08:53.345Z,96213.14
2018-08-13T05:12:18.966Z,96211.30
2018-08-13T05:15:43.607Z,96212.00
2018-08-13T05:19:08.352Z,96216.69
2018-08-13T05:22:33.112Z,96222.63
2018-08-13T05:25:57.770Z,96224.81
2018-08-13T05:29:22.430Z,96235.75
2018-08-13T05:32:47.279Z,96228.63
2018-08-13T05:36:11.976Z,96237.52
2018-08-13T05:39:36.705Z,96246.51
2018-08-13T05:43:01.409Z,96242.27
2018-08-13T05:46:26.114Z,96246.33
2018-08-13T05:49:50.805Z,96241.03
2018-08-13T05:53:15.571Z,96237.06
2018-08-13T05:56:40.308Z,96240.22
2018-08-13T06:00:07.752Z,96238.72
2018-08-13T06:03:32.465Z,96245.98
2018-08-13T06:06:57.198Z,96244.20
2018-08-13T06:10:21.925Z,96247.64
2018-08-13T06:13:46.743Z,96253.44
2018-08-13T06:17:11.386Z,96246.98
2018-08-13T06:20:36.053Z,96264.30
2018-08-13T06:24:00.759Z,96251.91
2018-08-13T06:27:25.511Z,96243.50
2018-08-13T06:30:50.217Z,96265.13
2018-08-13T06:34:14.942Z,96263.17
2018-08-13T06:37:39.771Z,96267.33
2018-08-13T06:41:04.484Z,96269.97
2018-08-13T06:44:29.123Z,96276.58
2018-08-13T06:47:53.825Z,96276.67
2018-08-13T06:51:18.524Z,96293.15
2018-08-13T06:54:43.349Z,96308.67
2018-08-13T06:58:08.072Z,96296.63
2018-08-13T07:01:32.789Z,96298.64
2018-08-13T07:04:57.685Z,96310.13
2018-08-13T07:08:22.419Z,96307.27
2018-08-13T07:11:47.119Z,96304.95
2018-08-13T07:15:12.199Z,96314.67
2018-08-13T07:18:36.873Z,96314.09
2018-08-13T07:22:01.656Z,96315.09
2018-08-13T07:25:26.358Z,96320.59
2018-08-13T07:28:51.163Z,96316.08
2018-08-13T07:32:15.821Z,96317.70
2018-08-13T07:35:40.587Z,96310.45
2018-08-13T07:39:09.030Z,96307.80
2018-08-13T07:42:33.676Z,96307.77
2018-08-13T07:45:58.345Z,96303.16
2018-08-13T07:49:23.021Z,96296.35
2018-08-13T07:52:47.693Z,96298.08
2018-08-13T07:56:12.395Z,96305.44
2018-08-13T07:59:37.105Z,96307.34
2018-08-13T08:03:01.838Z,96308.00
2018-08-13T08:06:26.576Z,96302.41
2018-08-13T08:09:51.313Z,96303.08
2018-08-13T08:13:16.100Z,96306.59
2018-08-13T08:16:40.860Z,96307.94
2018-08-13T08:20:06.573Z,96303.67
2018-08-13T08:23:31.351Z,96302.51
2018-08-13T08:26:56.150Z,96308.97
2018-08-13T08:30:20.946Z,96304.81
2018-08-13T08:33:45.783Z,96298.88
2018-08-13T08:37:10.471Z,96304.02
2018-08-13T08:40:35.445Z,96300.88
2018-08-13T08:44:00.060Z,96306.79
2018-08-13T08:47:24.831Z,96308.28
2018-08-13T08:50:49.545Z,96312.50
2018-08-13T08:54:14.297Z,96320.20
2018-08-13T08:57:39.071Z,96320.56
2018-08-13T09:01:03.810Z,96322.20
2018-08-13T09:04:28.464Z,96325.51
2018-08-13T09:07:53.237Z,96328.81
2018-08-13T09:11:17.947Z,96324.84
2018-08-13T09:14:42.671Z,96334.44
2018-08-13T09:18:24.803Z,96333.13
2018-08-13T09:21:54.122Z,96329.78
2018-08-13T09:25:36.327Z,96336.42
2018-08-13T09:30:16.743Z,96342.71
2018-08-13T09:33:58.462Z,96335.59
2018-08-13T09:37:23.154Z,96341.19
2018-08-13T09:40:47.861Z,96341.37
2018-08-13T09:44:12.549Z,96345.32
2018-08-13T09:47:38.070Z,96339.38
2018-08-13T09:54:37.159Z,96321.84
2018-08-13T09:58:01.987Z,96329.77
2018-08-13T10:01:26.765Z,96328.43
2018-08-13T10:04:51.553Z,96323.17
2018-08-13T10:08:16.296Z,96315.23
2018-08-13T10:11:41.016Z,96322.13
2018-08-13T10:15:07.543Z,96333.74
2018-08-13T10:18:32.238Z,96329.62
2018-08-13T10:21:57.005Z,96335.14
2018-08-13T10:25:21.737Z,96331.59
2018-08-13T10:28:46.410Z,96326.03
2018-08-13T10:32:11.175Z,96331.08
2018-08-13T10:35:35.876Z,96329.74
2018-08-13T10:39:00.563Z,96326.69
2018-08-13T10:42:25.466Z,96338.62
2018-08-13T10:45:51.137Z,96339.62
2018-08-13T10:49:15.811Z,96342.69
2018-08-13T10:52:40.976Z,96337.43
2018-08-13T10:56:06.010Z,96350.02
2018-08-13T10:59:30.669Z,96343.62
2018-08-13T11:02:55.475Z,96327.33
2018-08-13T11:06:20.151Z,96319.64
2018-08-13T11:09:44.958Z,96320.25
2018-08-13T11:13:09.685Z,96320.91
2018-08-13T11:16:34.511Z,96325.75
2018-08-13T11:19:59.282Z,96329.31
2018-08-13T11:23:24.053Z,96320.02
2018-08-13T11:26:48.761Z,96319.80
2018-08-13T11:30:17.117Z,96313.23
2018-08-13T11:33:42.013Z,96308.52
2018-08-13T11:37:06.769Z,96294.68
2018-08-13T11:40:31.446Z,96299.75
2018-08-13T11:43:56.151Z,96291.73
2018-08-13T11:47:20.843Z,96291.39
2018-08-13T11:50:45.566Z,96289.87
2018-08-13T11:54:10.216Z,96287.97
2018-08-13T11:57:35.428Z,96278.45
2018-08-13T12:01:00.180Z,96279.63
2018-08-13T12:04:24.895Z,96289.95
2018-08-13T12:07:49.784Z,96300.45
2018-08-13T12:11:14.470Z,96299.34
2018-08-13T12:14:39.179Z,96297.55
2018-08-13T12:18:04.145Z,96291.03
2018-08-13T12:21:29.468Z,96294.69
2018-08-13T12:24:54.172Z,96287.15
2018-08-13T12:28:18.898Z,96278.22
2018-08-13T12:31:43.690Z,96282.84
2018-08-13T12:35:08.519Z,96284.83
2018-08-13T12:38:33.262Z,96284.83
2018-08-13T12:41:57.972Z,96284.83
2018-08-13T12:45:22.767Z,96277.31
2018-08-13T12:48:47.489Z,96280.45
2018-08-13T12:52:12.314Z,96277.20
2018-08-13T12:55:37.060Z,96274.36
2018-08-13T12:59:01.716Z,96278.81
2018-08-13T13:02:26.378Z,96270.43
2018-08-13T13:05:51.064Z,96274.56
2018-08-13T13:09:15.783Z,96279.84
2018-08-13T13:12:41.135Z,96276.15
2018-08-13T13:16:05.868Z,96264.33
2018-08-13T13:19:30.595Z,96266.28
2018-08-13T13:22:55.294Z,96251.75
2018-08-13T13:26:20.031Z,96242.19
2018-08-13T13:29:44.669Z,96242.52
2018-08-13T13:33:09.365Z,96239.70
2018-08-13T13:36:33.991Z,96236.23
2018-08-13T13:39:58.608Z,96228.92
2018-08-13T13:43:23.413Z,96217.24
2018-08-13T13:46:48.053Z,96218.20
2018-08-13T13:50:15.436Z,96213.76
2018-08-13T13:53:40.075Z,96216.08
2018-08-13T13:57:04.815Z,96218.52
2018-08-13T14:00:29.419Z,96214.77
2018-08-13T14:03:54.102Z,96213.73
2018-08-13T14:07:19.385Z,96217.38
2018-08-13T14:10:44.033Z,96214.26
2018-08-13T14:14:09.657Z,96204.46
2018-08-13T14:17:34.397Z,96208.78
2018-08-13T14:20:59.065Z,96208.46
2018-08-13T14:24:23.697Z,96203.52
2018-08-13T14:27:48.448Z,96200.86
2018-08-13T14:31:13.048Z,96202.19
2018-08-13T14:34:37.739Z,96208.77
2018-08-13T14:38:02.403Z,96203.48
2018-08-13T14:41:27.107Z,96193.08
2018-08-13T14:44:51.811Z,96208.42
2018-08-13T14:48:16.565Z,96192.55
2018-08-13T14:51:41.214Z,96199.50
2018-08-13T14:55:06.492Z,96198.50
2018-08-13T14:58:31.189Z,96212.72
2018-08-13T15:01:55.978Z,96204.80
2018-08-13T15:05:20.639Z,96202.16
2018-08-13T15:08:45.285Z,96202.95
2018-08-13T15:12:10.044Z,96196.35
2018-08-13T15:15:34.745Z,96198.83
2018-08-13T15:18:59.479Z,96198.52
2018-08-13T15:22:24.187Z,96194.07
2018-08-13T15:25:48.843Z,96192.89
2018-08-13T15:29:13.546Z,96187.30
2018-08-13T15:32:38.265Z,96186.62
2018-08-13T15:36:03.213Z,96189.62
2018-08-13T15:39:27.883Z,96189.62
2018-08-13T15:42:52.579Z,96184.17
2018-08-13T15:46:17.503Z,96184.64
2018-08-13T15:49:42.150Z,96185.52
2018-08-13T15:53:06.956Z,96177.40
2018-08-13T15:56:31.706Z,96179.39
2018-08-13T15:59:56.493Z,96179.72
2018-08-13T16:03:21.197Z,96183.67
2018-08-13T16:06:46.073Z,96192.43
2018-08-13T16:10:13.697Z,96188.31
2018-08-13T16:13:38.381Z,96190.11
2018-08-13T16:17:03.099Z,96180.98
2018-08-13T16:20:27.819Z,96176.07
2018-08-13T16:23:52.427Z,96162.19
2018-08-13T16:27:17.142Z,96155.91
2018-08-13T16:30:41.938Z,96153.96
2018-08-13T16:34:06.748Z,96148.81
2018-08-13T16:37:31.387Z,96135.75
2018-08-13T16:40:56.043Z,96130.17
2018-08-13T16:44:20.773Z,96123.23
2018-08-13T16:47:45.545Z,96114.23
2018-08-13T16:51:10.272Z,96113.20
2018-08-13T16:54:35.060Z,96111.40
2018-08-13T16:58:00.732Z,96117.77
2018-08-13T17:01:25.475Z,96128.81
2018-08-13T17:04:50.227Z,96139.20
2018-08-13T17:08:15.077Z,96134.59
2018-08-13T17:11:39.694Z,96138.33
2018-08-13T17:15:05.037Z,96109.56
2018-08-13T17:18:29.751Z,96094.06
2018-08-13T17:21:54.620Z,96112.08
2018-08-13T17:25:19.355Z,96133.42
2018-08-13T17:28:44.107Z,96174.41
2018-08-13T17:32:08.893Z,96183.98
2018-08-13T17:35:35.351Z,96200.41
2018-08-13T17:39:00.175Z,96205.06
2018-08-13T17:42:24.813Z,96197.94
2018-08-13T17:45:49.592Z,96203.38
2018-08-13T17:49:14.267Z,96211.83
2018-08-13T17:52:40.456Z,96209.55
2018-08-13T17:56:05.236Z,96212.25
2018-08-13T17:59:29.902Z,96219.13
2018-08-13T18:02:54.642Z,96227.12
2018-08-13T18:06:19.487Z,96223.80
2018-08-13T18:09:44.198Z,96227.28
2018-08-13T18:13:09.918Z,96224.70
2018-08-13T18:16:34.706Z,96231.65
2018-08-13T18:19:59.427Z,96226.39
2018-08-13T18:23:24.084Z,96233.25
2018-08-13T18:26:48.718Z,96249.27
2018-08-13T18:30:20.408Z,96250.64
2018-08-13T18:33:45.064Z,96270.00
2018-08-13T18:37:09.900Z,96277.25
2018-08-13T18:40:35.310Z,96296.13
2018-08-13T18:44:00.031Z,96306.81
2018-08-13T18:47:24.755Z,96309.91
2018-08-13T18:50:49.465Z,96330.83
2018-08-13T18:54:14.178Z,96324.73
2018-08-13T18:57:38.881Z,96303.83
2018-08-13T19:01:03.686Z,96295.33
2018-08-13T19:04:28.443Z,96288.02
2018-08-13T19:07:53.397Z,96285.78
2018-08-13T19:11:19.125Z,96302.39
2018-08-13T19:14:43.853Z,96309.28
2018-08-13T19:18:08.519Z,96319.66
2018-08-13T19:21:33.350Z,96321.64
2018-08-13T19:24:58.072Z,96322.50
2018-08-13T19:28:23.321Z,96335.59
2018-08-13T19:31:47.977Z,96345.67
2018-08-13T19:35:12.754Z,96350.72
2018-08-13T19:38:37.520Z,96345.05
2018-08-13T19:42:02.175Z,96369.62
2018-08-13T19:45:26.866Z,96368.77
2018-08-13T19:48:51.585Z,96386.81
2018-08-13T19:52:16.256Z,96387.53
2018-08-13T19:55:40.977Z,96394.95
2018-08-13T19:59:05.621Z,96397.44
2018-08-13T20:02:30.307Z,96405.66
2018-08-13T20:05:55.082Z,96425.91
2018-08-13T20:09:19.821Z,96444.36
2018-08-13T20:12:45.325Z,96435.91
2018-08-13T20:16:10.280Z,96431.02
2018-08-13T20:19:35.048Z,96420.91
2018-08-13T20:22:59.705Z,96422.44
2018-08-13T20:26:24.439Z,96428.84
2018-08-13T20:29:49.185Z,96433.59
2018-08-13T20:33:13.846Z,96438.48
2018-08-13T20:36:39.495Z,96438.14
2018-08-13T20:40:04.256Z,96437.55
2018-08-13T20:43:28.936Z,96418.31
2018-08-13T20:46:53.672Z,96418.36
2018-08-13T20:50:21.748Z,96419.28
2018-08-13T20:53:46.500Z,96412.88
2018-08-13T20:57:11.284Z,96417.47
2018-08-13T21:00:36.033Z,96418.92
2018-08-13T21:04:00.773Z,96423.33
2018-08-13T21:07:25.418Z,96423.03
2018-08-13T21:10:50.068Z,96430.03
2018-08-13T21:14:14.769Z,96423.30
2018-08-13T21:17:39.697Z,96418.66
2018-08-13T21:21:04.441Z,96430.09
2018-08-13T21:24:29.248Z,96429.31
2018-08-13T21:27:54.087Z,96439.05
2018-08-13T21:31:18.793Z,96446.66
2018-08-13T21:34:44.135Z,96449.78
2018-08-13T21:38:08.929Z,96451.81
2018-08-13T21:41:33.708Z,96445.11
2018-08-13T21:44:58.609Z,96453.64
2018-08-13T21:48:23.402Z,96437.23
2018-08-13T21:51:48.168Z,96439.45
2018-08-13T21:55:12.853Z,96439.88
2018-08-13T21:58:37.556Z,96442.81
2018-08-13T22:02:02.409Z,96442.65
2018-08-13T22:05:27.206Z,96444.53
2018-08-13T22:08:51.917Z,96448.62
2018-08-13T22:12:17.498Z,96446.41
2018-08-13T22:15:42.209Z,96447.92
2018-08-13T22:19:07.780Z,96452.02
2018-08-13T22:22:32.441Z,96458.13
2018-08-13T22:25:57.239Z,96461.97
2018-08-13T22:29:21.986Z,96455.39
2018-08-13T22:32:46.694Z,96464.72
2018-08-13T22:36:11.528Z,96468.77
2018-08-13T22:39:36.134Z,96458.02
2018-08-13T22:43:00.965Z,96461.00
2018-08-13T22:46:25.629Z,96461.75
2018-08-13T22:49:51.301Z,96462.66
2018-08-13T22:53:15.968Z,96462.53
2018-08-13T22:56:41.271Z,96464.84
2018-08-13T23:00:08.833Z,96475.42
2018-08-13T23:03:33.597Z,96470.92
2018-08-13T23:06:59.046Z,96465.31
2018-08-13T23:10:24.851Z,96457.87
2018-08-13T23:13:49.639Z,96461.34
2018-08-13T23:17:14.347Z,96463.50
2018-08-13T23:20:39.328Z,96464.40
2018-08-13T23:24:03.996Z,96461.41
2018-08-13T23:27:28.725Z,96460.61
2018-08-13T23:30:53.434Z,96458.98
2018-08-13T23:34:18.190Z,96457.35
2018-08-13T23:37:43.399Z,96455.63
2018-08-13T23:41:08.373Z,96457.34
2018-08-13T23:44:33.081Z,96451.68
2018-08-13T23:47:57.899Z,96442.50
2018-08-13T23:51:22.607Z,96444.06
2018-08-13T23:54:47.284Z,96448.63
2018-08-13T23:58:13.905Z,96451.09
